Time;durP1;ratioP1;P1;durP2;ratioP2;P2;SDS_P1;SDS_P2;PMS_P1;PMS_P2;Temp;Humidity;BMP_temperature;BMP_pressure;BME280_temperature;BME280_humidity;BME280_pressure;Samples;Min_cycle;Max_cycle;Signal;HPM_P1;HPM_P2
2023/08/18 00:02:00;;;;;;;5.80;4.97;;;;;;;;;;5042283;28;20221;-81
2023/08/18 00:04:27;;;;;;;6.30;5.50;;;;;;;;;;5044273;28;20174;-81
2023/08/18 00:06:54;;;;;;;6.20;5.60;;;;;;;;;;5034041;28;20309;-81
2023/08/18 00:09:20;;;;;;;6.57;5.90;;;;;;;;;;5043328;28;20190;-82
2023/08/18 00:11:47;;;;;;;8.77;6.67;;;;;;;;;;5045288;28;20181;-83
2023/08/18 00:14:13;;;;;;;8.03;6.30;;;;;;;;;;5040095;28;20214;-83
2023/08/18 00:16:39;;;;;;;7.37;6.17;;;;;;;;;;5037294;28;20189;-83
2023/08/18 00:19:05;;;;;;;6.73;6.13;;;;;;;;;;5038150;28;20698;-84
2023/08/18 00:21:31;;;;;;;7.07;6.37;;;;;;;;;;5037662;28;20210;-84
2023/08/18 00:23:57;;;;;;;7.20;6.50;;;;;;;;;;5038402;28;20189;-84
2023/08/18 00:26:23;;;;;;;6.80;6.10;;;;;;;;;;5042127;28;20214;-82
2023/08/18 00:28:49;;;;;;;7.00;6.40;;;;;;;;;;5039127;28;20178;-82
2023/08/18 00:31:16;;;;;;;6.90;6.30;;;;;;;;;;5041562;28;20293;-84
2023/08/18 00:33:42;;;;;;;7.30;6.57;;;;;;;;;;5024154;28;20193;-84
2023/08/18 00:36:08;;;;;;;7.20;6.50;;;;;;;;;;5045587;28;20547;-83
2023/08/18 00:38:34;;;;;;;8.37;6.33;;;;;;;;;;5045593;28;20323;-83
2023/08/18 00:41:01;;;;;;;7.00;6.13;;;;;;;;;;5028939;28;20619;-83
2023/08/18 00:43:28;;;;;;;7.60;6.83;;;;;;;;;;5040253;28;20183;-83
2023/08/18 00:45:55;;;;;;;6.90;6.30;;;;;;;;;;5042006;28;21000;-84
2023/08/18 00:48:23;;;;;;;7.50;6.80;;;;;;;;;;5036530;28;20190;-83
2023/08/18 00:50:50;;;;;;;7.13;6.43;;;;;;;;;;5038224;28;20709;-83
2023/08/18 00:53:16;;;;;;;7.10;6.40;;;;;;;;;;5040585;28;20181;-83
2023/08/18 00:55:43;;;;;;;7.27;6.57;;;;;;;;;;5020217;28;20679;-83
2023/08/18 00:58:09;;;;;;;7.47;6.80;;;;;;;;;;5021214;28;20190;-84
2023/08/18 01:00:35;;;;;;;8.10;7.30;;;;;;;;;;5037517;28;20211;-84
2023/08/18 01:03:04;;;;;;;8.87;6.70;;;;;;;;;;5030529;28;20191;-83
2023/08/18 01:05:31;;;;;;;7.17;6.37;;;;;;;;;;5037552;28;20226;-83
2023/08/18 01:08:01;;;;;;;7.40;6.70;;;;;;;;;;5020582;28;20237;-83
2023/08/18 01:10:28;;;;;;;8.10;6.87;;;;;;;;;;5053450;23;20626;-85
2023/08/18 01:13:13;;;;;;;7.60;6.80;;;;;;;;;;5047473;28;20571;-85
2023/08/18 01:15:41;;;;;;;8.03;6.90;;;;;;;;;;5010397;28;20194;-85
2023/08/18 01:18:09;;;;;;;7.70;6.87;;;;;;;;;;5046997;28;20675;-84
2023/08/18 01:20:35;;;;;;;7.93;7.13;;;;;;;;;;5002811;28;20228;-85
2023/08/18 01:23:02;;;;;;;7.63;6.90;;;;;;;;;;5007350;28;20203;-86
2023/08/18 01:25:28;;;;;;;7.67;6.90;;;;;;;;;;5009869;28;20240;-85
2023/08/18 01:27:56;;;;;;;6.53;6.00;;;;;;;;;;5025239;28;20186;-85
2023/08/18 01:30:24;;;;;;;8.90;6.80;;;;;;;;;;4987602;28;20206;-85
2023/08/18 01:32:56;;;;;;;7.40;6.70;;;;;;;;;;5023039;28;20549;-85
2023/08/18 01:35:25;;;;;;;6.87;6.17;;;;;;;;;;5009602;28;20589;-85
2023/08/18 01:37:51;;;;;;;7.10;6.40;;;;;;;;;;5011861;28;20247;-85
2023/08/18 01:40:20;;;;;;;8.67;6.87;;;;;;;;;;5010260;28;20207;-85
2023/08/18 01:42:46;;;;;;;7.77;7.07;;;;;;;;;;5018905;28;20197;-85
2023/08/18 01:45:14;;;;;;;10.63;7.33;;;;;;;;;;5010150;28;20194;-85
2023/08/18 01:47:41;;;;;;;8.30;7.50;;;;;;;;;;5008113;28;20180;-85
2023/08/18 01:50:08;;;;;;;7.93;7.23;;;;;;;;;;5009994;28;20249;-85
2023/08/18 01:52:35;;;;;;;7.70;6.90;;;;;;;;;;5002919;28;20279;-85
2023/08/18 01:55:01;;;;;;;8.13;7.33;;;;;;;;;;5009335;28;20189;-86
2023/08/18 01:57:28;;;;;;;8.13;7.40;;;;;;;;;;5028739;28;20187;-85
2023/08/18 01:59:54;;;;;;;8.23;7.50;;;;;;;;;;5032665;28;20249;-85
2023/08/18 02:02:22;;;;;;;8.10;7.30;;;;;;;;;;5040070;28;20221;-85
2023/08/18 02:04:48;;;;;;;7.53;6.73;;;;;;;;;;5039612;28;20237;-86
2023/08/18 02:07:14;;;;;;;7.57;6.87;;;;;;;;;;4993121;28;20243;-85
2023/08/18 02:09:41;;;;;;;7.73;6.93;;;;;;;;;;5017141;28;20182;-86
2023/08/18 02:12:07;;;;;;;7.77;6.97;;;;;;;;;;4991208;28;20294;-85
2023/08/18 02:14:33;;;;;;;7.37;6.70;;;;;;;;;;5022316;28;20183;-85
2023/08/18 02:16:59;;;;;;;7.47;6.77;;;;;;;;;;5016579;28;20191;-85
2023/08/18 02:19:25;;;;;;;7.33;6.73;;;;;;;;;;5021729;28;20183;-85
2023/08/18 02:21:51;;;;;;;7.63;6.57;;;;;;;;;;4992247;28;20214;-85
2023/08/18 02:24:18;;;;;;;8.83;7.30;;;;;;;;;;4986475;28;20186;-85
2023/08/18 02:26:44;;;;;;;8.00;7.20;;;;;;;;;;5011759;28;20206;-85
2023/08/18 02:29:10;;;;;;;9.40;6.70;;;;;;;;;;5007079;28;20179;-85
2023/08/18 02:31:36;;;;;;;10.77;7.43;;;;;;;;;;5024586;28;20215;-85
2023/08/18 02:34:02;;;;;;;7.60;6.93;;;;;;;;;;5043655;28;20213;-85
2023/08/18 02:36:29;;;;;;;7.50;6.77;;;;;;;;;;5027845;28;20197;-85
2023/08/18 02:38:55;;;;;;;7.70;6.90;;;;;;;;;;5005035;28;20187;-85
2023/08/18 02:41:23;;;;;;;11.00;7.20;;;;;;;;;;4994661;28;20219;-85
2023/08/18 02:43:50;;;;;;;7.47;6.77;;;;;;;;;;4993982;28;20191;-86
2023/08/18 02:46:18;;;;;;;8.67;7.53;;;;;;;;;;4985892;28;20211;-85
2023/08/18 02:48:44;;;;;;;9.40;7.60;;;;;;;;;;5035421;28;20269;-85
2023/08/18 02:51:10;;;;;;;8.27;7.13;;;;;;;;;;5043056;28;20669;-85
2023/08/18 02:53:37;;;;;;;8.73;7.10;;;;;;;;;;5006688;28;20214;-84
2023/08/18 02:56:03;;;;;;;11.07;7.30;;;;;;;;;;5005818;28;20531;-85
2023/08/18 02:58:30;;;;;;;8.53;7.20;;;;;;;;;;5023703;28;20191;-85
2023/08/18 03:01:01;;;;;;;7.03;6.43;;;;;;;;;;5008316;28;20236;-86
2023/08/18 03:03:27;;;;;;;7.30;6.70;;;;;;;;;;5044522;28;20546;-85
2023/08/18 03:05:53;;;;;;;7.80;6.40;;;;;;;;;;5026041;28;20203;-85
2023/08/18 03:08:20;;;;;;;7.10;6.40;;;;;;;;;;5020213;28;20593;-85
2023/08/18 03:10:56;;;;;;;7.10;6.43;;;;;;;;;;5004993;28;20219;-85
2023/08/18 03:13:22;;;;;;;7.73;6.77;;;;;;;;;;5023111;28;20264;-85
2023/08/18 03:15:48;;;;;;;8.17;7.40;;;;;;;;;;5025485;28;20818;-86
2023/08/18 03:18:14;;;;;;;8.97;7.00;;;;;;;;;;5019845;28;20284;-85
2023/08/18 03:20:41;;;;;;;7.67;6.97;;;;;;;;;;5025885;28;20290;-86
2023/08/18 03:23:08;;;;;;;6.87;6.27;;;;;;;;;;5031280;28;20284;-84
2023/08/18 03:25:34;;;;;;;9.37;6.97;;;;;;;;;;4998902;28;20378;-85
2023/08/18 03:28:03;;;;;;;6.87;6.23;;;;;;;;;;5020493;28;20190;-85
2023/08/18 03:30:29;;;;;;;7.57;6.20;;;;;;;;;;4988645;28;20708;-86
2023/08/18 03:32:57;;;;;;;7.20;6.60;;;;;;;;;;5010864;28;20198;-85
2023/08/18 03:35:23;;;;;;;7.27;6.20;;;;;;;;;;4988574;28;20230;-86
2023/08/18 03:37:49;;;;;;;7.43;6.73;;;;;;;;;;5018254;28;20561;-85
2023/08/18 03:40:15;;;;;;;7.80;7.00;;;;;;;;;;5024261;28;20300;-84
2023/08/18 03:42:42;;;;;;;6.90;6.20;;;;;;;;;;5014019;28;20190;-85
2023/08/18 03:45:08;;;;;;;7.73;6.47;;;;;;;;;;5008295;28;20227;-85
2023/08/18 03:47:34;;;;;;;7.67;6.40;;;;;;;;;;4993968;28;20191;-85
2023/08/18 03:50:01;;;;;;;7.30;6.60;;;;;;;;;;4992899;28;20215;-85
2023/08/18 03:52:27;;;;;;;8.03;7.03;;;;;;;;;;5027347;28;20190;-85
2023/08/18 03:54:53;;;;;;;7.70;6.80;;;;;;;;;;4998068;28;20193;-86
2023/08/18 03:57:19;;;;;;;7.47;6.87;;;;;;;;;;4994629;28;20187;-85
2023/08/18 03:59:45;;;;;;;7.80;6.77;;;;;;;;;;5023111;28;20309;-86
2023/08/18 04:02:11;;;;;;;8.37;7.50;;;;;;;;;;4993751;28;20864;-85
2023/08/18 04:04:38;;;;;;;7.70;7.10;;;;;;;;;;5009419;28;20556;-85
2023/08/18 04:07:04;;;;;;;8.00;7.23;;;;;;;;;;5010196;28;20238;-85
2023/08/18 04:09:30;;;;;;;7.23;6.63;;;;;;;;;;5025311;28;20179;-85
2023/08/18 04:11:56;;;;;;;7.20;6.50;;;;;;;;;;5008595;28;20590;-85
2023/08/18 04:14:23;;;;;;;7.97;6.30;;;;;;;;;;5012489;28;20243;-85
2023/08/18 04:16:50;;;;;;;6.57;5.97;;;;;;;;;;5019841;28;20198;-85
2023/08/18 04:19:16;;;;;;;6.23;5.73;;;;;;;;;;5009307;28;20191;-85
2023/08/18 04:21:43;;;;;;;6.60;6.00;;;;;;;;;;4991451;28;20210;-85
2023/08/18 04:24:09;;;;;;;7.23;6.07;;;;;;;;;;4999963;28;20244;-85
2023/08/18 04:26:38;;;;;;;6.77;6.07;;;;;;;;;;4986456;28;20284;-85
2023/08/18 04:29:05;;;;;;;6.57;6.07;;;;;;;;;;5009890;28;20672;-85
2023/08/18 04:31:31;;;;;;;7.67;6.23;;;;;;;;;;5009554;28;20210;-85
2023/08/18 04:33:59;;;;;;;6.90;6.23;;;;;;;;;;5006198;28;20269;-81
2023/08/18 04:36:26;;;;;;;6.47;5.87;;;;;;;;;;5023826;28;20604;-85
2023/08/18 04:38:55;;;;;;;7.33;6.63;;;;;;;;;;4988622;28;20689;-79
2023/08/18 04:41:28;;;;;;;7.03;6.40;;;;;;;;;;5009468;28;20270;-78
2023/08/18 04:43:54;;;;;;;7.27;6.17;;;;;;;;;;5006779;28;20642;-81
2023/08/18 04:46:24;;;;;;;7.57;6.87;;;;;;;;;;5010214;28;20219;-80
2023/08/18 04:48:51;;;;;;;7.43;6.77;;;;;;;;;;5008428;28;20606;-79
2023/08/18 04:51:18;;;;;;;8.67;6.80;;;;;;;;;;5023564;28;20211;-80
2023/08/18 04:53:44;;;;;;;7.50;6.80;;;;;;;;;;4993603;28;20201;-80
2023/08/18 04:56:10;;;;;;;8.27;6.60;;;;;;;;;;5024810;28;20182;-79
2023/08/18 04:58:37;;;;;;;7.37;6.50;;;;;;;;;;5026190;28;20209;-80
2023/08/18 05:01:03;;;;;;;7.10;6.40;;;;;;;;;;5027526;28;20301;-80
2023/08/18 05:03:30;;;;;;;6.83;6.13;;;;;;;;;;5027149;28;20195;-80
2023/08/18 05:06:02;;;;;;;6.60;5.90;;;;;;;;;;5027805;28;20370;-80
2023/08/18 05:08:29;;;;;;;7.80;6.57;;;;;;;;;;5006521;28;20232;-80
2023/08/18 05:11:02;;;;;;;7.40;6.00;;;;;;;;;;5026182;28;20249;-81
2023/08/18 05:13:29;;;;;;;8.23;6.23;;;;;;;;;;5038615;28;20256;-80
2023/08/18 05:15:55;;;;;;;7.00;5.50;;;;;;;;;;5032558;28;20622;-80
2023/08/18 05:18:21;;;;;;;6.83;6.13;;;;;;;;;;4994571;28;20698;-80
2023/08/18 05:20:47;;;;;;;6.93;6.20;;;;;;;;;;5007840;28;20260;-80
2023/08/18 05:23:16;;;;;;;6.33;5.73;;;;;;;;;;5024504;28;20190;-80
2023/08/18 05:25:44;;;;;;;8.00;6.20;;;;;;;;;;5024643;28;20217;-80
2023/08/18 05:28:10;;;;;;;6.70;6.10;;;;;;;;;;5025342;28;20215;-79
2023/08/18 05:30:36;;;;;;;6.27;5.67;;;;;;;;;;5021884;28;20430;-79
2023/08/18 05:33:03;;;;;;;6.40;5.80;;;;;;;;;;5025268;28;20748;-81
2023/08/18 05:35:29;;;;;;;6.60;6.00;;;;;;;;;;5011633;28;20190;-80
2023/08/18 05:37:55;;;;;;;7.73;6.60;;;;;;;;;;5018995;28;20314;-80
2023/08/18 05:40:21;;;;;;;7.57;6.57;;;;;;;;;;5025693;28;20225;-79
2023/08/18 05:42:47;;;;;;;8.07;6.60;;;;;;;;;;5037860;28;20186;-79
2023/08/18 05:45:13;;;;;;;7.37;6.77;;;;;;;;;;5043945;28;20233;-80
2023/08/18 05:47:40;;;;;;;6.97;6.23;;;;;;;;;;5045696;28;20175;-79
2023/08/18 05:50:07;;;;;;;7.33;6.50;;;;;;;;;;5042777;28;20218;-79
2023/08/18 05:52:33;;;;;;;7.00;6.30;;;;;;;;;;5039154;28;20175;-80
2023/08/18 05:55:00;;;;;;;7.10;6.40;;;;;;;;;;5044531;28;20182;-79
2023/08/18 05:57:26;;;;;;;9.37;6.70;;;;;;;;;;5027210;28;20194;-80
2023/08/18 05:59:52;;;;;;;7.90;7.07;;;;;;;;;;5024075;28;20214;-79
2023/08/18 06:02:18;;;;;;;9.93;8.10;;;;;;;;;;5060282;28;20190;-80
2023/08/18 06:04:44;;;;;;;7.83;7.03;;;;;;;;;;5039130;28;20205;-80
2023/08/18 06:07:11;;;;;;;7.50;6.63;;;;;;;;;;5035701;28;20246;-80
2023/08/18 06:09:38;;;;;;;7.53;6.70;;;;;;;;;;5022642;28;20186;-79
2023/08/18 06:12:04;;;;;;;7.60;6.97;;;;;;;;;;5021030;28;20191;-78
2023/08/18 06:14:30;;;;;;;9.07;7.20;;;;;;;;;;5030612;28;20194;-79
2023/08/18 06:16:56;;;;;;;7.17;6.57;;;;;;;;;;5025084;28;20201;-80
2023/08/18 06:19:22;;;;;;;7.97;6.67;;;;;;;;;;5022497;28;20229;-80
2023/08/18 06:21:49;;;;;;;5.93;5.43;;;;;;;;;;5025384;28;20221;-79
2023/08/18 06:24:15;;;;;;;7.60;6.00;;;;;;;;;;5008543;28;20221;-80
2023/08/18 06:26:41;;;;;;;9.03;5.47;;;;;;;;;;5020423;28;20214;-79
2023/08/18 06:29:07;;;;;;;7.07;5.57;;;;;;;;;;5032476;28;20195;-79
2023/08/18 06:31:33;;;;;;;5.90;5.23;;;;;;;;;;5032727;28;20202;-79
2023/08/18 06:34:00;;;;;;;6.83;5.00;;;;;;;;;;5039786;28;20194;-80
2023/08/18 06:36:26;;;;;;;7.37;5.43;;;;;;;;;;5023275;28;20197;-79
2023/08/18 06:38:52;;;;;;;5.87;5.20;;;;;;;;;;5007932;28;20191;-80
2023/08/18 06:41:18;;;;;;;5.27;4.20;;;;;;;;;;5036235;28;20292;-79
2023/08/18 06:43:44;;;;;;;6.03;4.87;;;;;;;;;;5035113;28;20252;-79
2023/08/18 06:46:11;;;;;;;6.67;4.40;;;;;;;;;;5038870;28;20287;-80
2023/08/18 06:48:37;;;;;;;5.13;4.07;;;;;;;;;;5027795;28;20186;-80
2023/08/18 06:51:03;;;;;;;5.23;3.90;;;;;;;;;;5031812;28;20218;-79
2023/08/18 06:53:29;;;;;;;7.40;3.83;;;;;;;;;;5010434;28;20182;-79
2023/08/18 06:55:58;;;;;;;5.47;3.70;;;;;;;;;;5015751;28;20551;-79
2023/08/18 06:58:25;;;;;;;7.30;3.80;;;;;;;;;;4995069;28;20251;-79
2023/08/18 07:00:52;;;;;;;6.27;4.10;;;;;;;;;;5027995;28;20241;-79
2023/08/18 07:03:18;;;;;;;4.77;3.50;;;;;;;;;;5015586;28;20199;-79
2023/08/18 07:05:45;;;;;;;6.23;3.50;;;;;;;;;;5015967;28;20218;-80
2023/08/18 07:08:11;;;;;;;5.93;3.70;;;;;;;;;;5030694;28;20187;-78
2023/08/18 07:10:37;;;;;;;6.13;3.93;;;;;;;;;;5044113;22;20539;-75
2023/08/18 07:13:04;;;;;;;6.43;3.77;;;;;;;;;;5031845;28;20198;-78
2023/08/18 07:15:30;;;;;;;5.63;3.80;;;;;;;;;;5017389;28;20184;-77
2023/08/18 07:17:56;;;;;;;4.30;3.63;;;;;;;;;;5041641;28;20262;-77
2023/08/18 07:20:23;;;;;;;7.00;3.60;;;;;;;;;;5034653;28;20792;-76
2023/08/18 07:22:49;;;;;;;7.00;3.90;;;;;;;;;;5033053;28;20231;-77
2023/08/18 07:25:15;;;;;;;8.13;4.13;;;;;;;;;;5026222;28;20279;-77
2023/08/18 07:27:41;;;;;;;5.67;3.93;;;;;;;;;;5023597;28;20266;-78
2023/08/18 07:30:08;;;;;;;5.73;3.70;;;;;;;;;;5017800;28;20212;-78
2023/08/18 07:32:34;;;;;;;4.73;3.90;;;;;;;;;;5023497;28;20743;-78
2023/08/18 07:35:01;;;;;;;5.63;3.80;;;;;;;;;;5011932;28;20687;-78
2023/08/18 07:37:27;;;;;;;6.23;3.77;;;;;;;;;;5014325;28;20269;-77
2023/08/18 07:39:53;;;;;;;5.63;3.60;;;;;;;;;;4996949;28;20538;-78
2023/08/18 07:42:19;;;;;;;5.13;3.60;;;;;;;;;;5011901;28;20289;-78
2023/08/18 07:44:45;;;;;;;3.60;3.30;;;;;;;;;;5013906;28;20188;-77
2023/08/18 07:47:11;;;;;;;5.77;3.30;;;;;;;;;;5010508;28;20239;-78
2023/08/18 07:49:38;;;;;;;4.20;3.37;;;;;;;;;;5016935;28;20180;-76
2023/08/18 07:52:04;;;;;;;3.87;3.40;;;;;;;;;;5015007;28;20230;-76
2023/08/18 07:54:30;;;;;;;6.37;3.43;;;;;;;;;;5012943;28;20610;-78
2023/08/18 07:56:56;;;;;;;3.73;3.33;;;;;;;;;;5016999;28;20241;-76
2023/08/18 07:59:22;;;;;;;3.93;3.30;;;;;;;;;;5015042;28;20202;-76
2023/08/18 08:01:49;;;;;;;9.10;3.30;;;;;;;;;;5024265;28;20290;-76
2023/08/18 08:04:15;;;;;;;5.83;3.20;;;;;;;;;;5015503;28;20186;-76
2023/08/18 08:06:41;;;;;;;4.50;3.10;;;;;;;;;;5014267;28;20279;-76
2023/08/18 08:09:07;;;;;;;6.43;3.13;;;;;;;;;;5005559;28;20190;-76
2023/08/18 08:11:33;;;;;;;4.07;2.97;;;;;;;;;;5015752;28;20229;-75
2023/08/18 08:14:00;;;;;;;5.53;3.00;;;;;;;;;;5018125;28;20214;-75
2023/08/18 08:16:26;;;;;;;3.83;3.10;;;;;;;;;;5023190;28;20267;-77
2023/08/18 08:18:52;;;;;;;5.53;2.80;;;;;;;;;;5015467;28;20184;-76
2023/08/18 08:21:18;;;;;;;5.40;3.20;;;;;;;;;;5006548;28;20206;-76
2023/08/18 08:23:45;;;;;;;3.97;3.20;;;;;;;;;;5008471;28;20659;-76
2023/08/18 08:26:11;;;;;;;5.20;3.30;;;;;;;;;;5010719;28;20241;-73
2023/08/18 08:28:38;;;;;;;3.17;2.87;;;;;;;;;;5017020;28;20179;-75
2023/08/18 08:31:04;;;;;;;4.67;2.80;;;;;;;;;;5014489;28;20693;-74
2023/08/18 08:33:31;;;;;;;5.67;3.00;;;;;;;;;;5015044;28;20233;-73
2023/08/18 08:35:58;;;;;;;4.50;2.90;;;;;;;;;;5009890;28;20199;-76
2023/08/18 08:38:24;;;;;;;3.30;2.77;;;;;;;;;;5016409;28;20557;-76
2023/08/18 08:40:54;;;;;;;4.63;3.00;;;;;;;;;;5018609;28;20199;-76
2023/08/18 08:43:21;;;;;;;7.23;3.20;;;;;;;;;;5006394;28;20600;-74
2023/08/18 08:45:47;;;;;;;7.20;3.30;;;;;;;;;;5014566;28;20215;-76
2023/08/18 08:48:13;;;;;;;3.87;3.33;;;;;;;;;;5011085;28;20658;-76
2023/08/18 08:50:42;;;;;;;6.03;3.43;;;;;;;;;;5008850;28;20226;-76
2023/08/18 08:53:13;;;;;;;5.30;3.27;;;;;;;;;;5015988;28;20188;-76
2023/08/18 08:55:41;;;;;;;3.80;3.40;;;;;;;;;;5008994;28;20175;-76
2023/08/18 08:58:08;;;;;;;4.70;3.73;;;;;;;;;;5014018;28;20607;-76
2023/08/18 09:00:34;;;;;;;5.63;3.57;;;;;;;;;;5010055;28;20179;-76
2023/08/18 09:03:04;;;;;;;6.17;3.30;;;;;;;;;;5003711;28;20627;-76
2023/08/18 09:05:31;;;;;;;4.97;3.50;;;;;;;;;;5017763;28;20198;-74
2023/08/18 09:07:59;;;;;;;4.47;3.60;;;;;;;;;;5020261;28;20213;-75
2023/08/18 09:10:26;;;;;;;4.37;3.53;;;;;;;;;;5007440;28;20635;-76
2023/08/18 09:12:52;;;;;;;5.40;3.60;;;;;;;;;;5015839;28;20622;-74
2023/08/18 09:15:18;;;;;;;4.87;3.70;;;;;;;;;;5007595;28;20229;-76
2023/08/18 09:17:44;;;;;;;4.97;4.10;;;;;;;;;;5013462;28;20186;-76
2023/08/18 09:20:13;;;;;;;4.50;3.60;;;;;;;;;;5010695;28;20247;-76
2023/08/18 09:22:40;;;;;;;5.43;3.40;;;;;;;;;;5012654;28;20206;-75
2023/08/18 09:25:09;;;;;;;6.43;3.70;;;;;;;;;;5012325;28;20650;-76
2023/08/18 09:27:35;;;;;;;4.53;3.67;;;;;;;;;;5008167;28;20303;-75
2023/08/18 09:30:01;;;;;;;5.70;3.90;;;;;;;;;;5008551;28;20233;-76
2023/08/18 09:32:27;;;;;;;6.63;3.90;;;;;;;;;;5013967;28;20218;-75
2023/08/18 09:34:54;;;;;;;6.17;3.80;;;;;;;;;;5013015;28;20534;-75
2023/08/18 09:37:21;;;;;;;4.93;3.97;;;;;;;;;;5010112;28;20191;-76
2023/08/18 09:39:47;;;;;;;5.30;4.20;;;;;;;;;;5012493;28;20327;-76
2023/08/18 09:42:14;;;;;;;5.67;4.00;;;;;;;;;;5010446;28;20824;-76
2023/08/18 09:44:41;;;;;;;7.13;4.30;;;;;;;;;;5014934;28;20221;-76
2023/08/18 09:47:08;;;;;;;4.43;3.53;;;;;;;;;;5004601;28;20309;-76
2023/08/18 09:49:36;;;;;;;4.77;3.80;;;;;;;;;;5008869;28;20190;-76
2023/08/18 09:52:04;;;;;;;5.90;3.87;;;;;;;;;;5010906;28;20631;-76
2023/08/18 09:54:31;;;;;;;6.40;3.67;;;;;;;;;;5011795;28;20258;-75
2023/08/18 09:57:02;;;;;;;6.37;3.70;;;;;;;;;;5011939;28;20280;-76
2023/08/18 09:59:37;;;;;;;5.07;3.60;;;;;;;;;;5022855;28;20265;-76
2023/08/18 10:02:03;;;;;;;5.17;4.00;;;;;;;;;;5008450;28;20210;-76
2023/08/18 10:04:34;;;;;;;5.60;3.87;;;;;;;;;;5021843;28;20187;-76
2023/08/18 10:07:01;;;;;;;5.37;3.90;;;;;;;;;;5017675;28;20213;-76
2023/08/18 10:09:33;;;;;;;4.50;3.50;;;;;;;;;;5021665;28;20741;-75
2023/08/18 10:12:00;;;;;;;5.20;3.63;;;;;;;;;;5012847;28;20227;-77
2023/08/18 10:14:27;;;;;;;7.00;3.83;;;;;;;;;;5013918;28;20917;-76
2023/08/18 10:16:54;;;;;;;4.93;3.67;;;;;;;;;;5015655;28;20196;-74
2023/08/18 10:19:39;;;;;;;4.90;3.60;;;;;;;;;;5008604;28;20179;-76
2023/08/18 10:22:06;;;;;;;3.97;3.27;;;;;;;;;;5016232;28;20359;-77
2023/08/18 10:24:36;;;;;;;5.83;3.53;;;;;;;;;;5025967;28;20277;-76
2023/08/18 10:27:03;;;;;;;4.67;3.47;;;;;;;;;;5008085;28;20230;-75
2023/08/18 10:29:29;;;;;;;5.23;3.53;;;;;;;;;;5010063;28;20583;-77
2023/08/18 10:31:56;;;;;;;4.73;3.20;;;;;;;;;;5019452;28;20564;-76
2023/08/18 10:34:23;;;;;;;4.90;3.90;;;;;;;;;;5017878;28;20187;-76
2023/08/18 10:36:57;;;;;;;4.97;3.93;;;;;;;;;;5023759;28;20187;-76
2023/08/18 10:39:24;;;;;;;5.10;3.70;;;;;;;;;;5022243;28;20190;-76
2023/08/18 10:42:13;;;;;;;7.60;3.60;;;;;;;;;;5011567;28;20199;-76
2023/08/18 10:44:56;;;;;;;4.07;3.50;;;;;;;;;;5012246;28;20233;-77
2023/08/18 10:47:29;;;;;;;3.90;3.50;;;;;;;;;;5019591;28;20222;-75
2023/08/18 10:49:56;;;;;;;5.70;3.80;;;;;;;;;;5026210;28;20237;-76
2023/08/18 10:52:22;;;;;;;4.97;3.63;;;;;;;;;;5022417;28;20218;-76
2023/08/18 10:54:48;;;;;;;6.63;3.77;;;;;;;;;;5023231;28;20649;-76
2023/08/18 10:57:14;;;;;;;4.67;3.30;;;;;;;;;;5009288;28;20224;-77
2023/08/18 10:59:40;;;;;;;3.90;3.50;;;;;;;;;;5015421;28;20242;-76
2023/08/18 11:02:08;;;;;;;4.83;3.30;;;;;;;;;;4995073;28;20269;-76
2023/08/18 11:04:34;;;;;;;6.30;3.30;;;;;;;;;;5014723;28;20210;-76
2023/08/18 11:07:00;;;;;;;5.13;3.50;;;;;;;;;;5021320;28;20340;-76
2023/08/18 11:09:26;;;;;;;4.13;3.23;;;;;;;;;;5025107;28;20181;-77
2023/08/18 11:11:52;;;;;;;5.57;3.60;;;;;;;;;;5008912;28;20353;-77
2023/08/18 11:14:19;;;;;;;4.90;3.53;;;;;;;;;;5008494;28;20183;-76
2023/08/18 11:16:45;;;;;;;5.20;3.80;;;;;;;;;;5007061;28;20264;-76
2023/08/18 11:19:11;;;;;;;7.20;3.20;;;;;;;;;;5013293;28;20191;-77
2023/08/18 11:21:37;;;;;;;7.07;3.33;;;;;;;;;;5016183;28;20211;-77
2023/08/18 11:24:04;;;;;;;4.47;2.90;;;;;;;;;;5022270;28;20230;-74
2023/08/18 11:26:31;;;;;;;5.80;3.30;;;;;;;;;;5011500;28;20210;-77
2023/08/18 11:28:57;;;;;;;4.93;2.90;;;;;;;;;;5015343;28;20181;-77
2023/08/18 11:31:23;;;;;;;4.23;3.20;;;;;;;;;;5023766;28;20199;-77
2023/08/18 11:33:49;;;;;;;4.27;2.97;;;;;;;;;;5014472;28;20806;-79
2023/08/18 11:36:16;;;;;;;6.23;3.20;;;;;;;;;;5018030;28;20250;-82
2023/08/18 11:38:42;;;;;;;4.10;2.80;;;;;;;;;;5015444;28;20194;-78
2023/08/18 11:41:09;;;;;;;5.67;3.07;;;;;;;;;;5014465;28;20213;-78
2023/08/18 11:43:35;;;;;;;4.13;2.97;;;;;;;;;;5023965;28;20191;-78
2023/08/18 11:46:02;;;;;;;3.47;2.83;;;;;;;;;;5022659;28;20207;-78
2023/08/18 11:48:29;;;;;;;4.30;2.83;;;;;;;;;;5025931;28;20203;-78
2023/08/18 11:50:56;;;;;;;4.70;2.73;;;;;;;;;;5017508;28;20207;-77
2023/08/18 11:53:26;;;;;;;4.13;2.70;;;;;;;;;;5016830;28;20186;-77
2023/08/18 11:55:52;;;;;;;3.30;2.30;;;;;;;;;;5017842;28;20193;-78
2023/08/18 11:58:22;;;;;;;6.43;2.30;;;;;;;;;;5009156;28;20184;-77
2023/08/18 12:00:48;;;;;;;4.07;2.40;;;;;;;;;;4996293;28;20635;-78
2023/08/18 12:03:21;;;;;;;5.37;2.27;;;;;;;;;;5017019;28;20186;-77
2023/08/18 12:05:47;;;;;;;2.87;2.00;;;;;;;;;;5011155;28;20207;-78
2023/08/18 12:08:14;;;;;;;5.83;2.20;;;;;;;;;;4994178;28;20188;-78
2023/08/18 12:10:42;;;;;;;3.03;2.27;;;;;;;;;;5015004;28;20214;-79
2023/08/18 12:13:08;;;;;;;4.77;2.37;;;;;;;;;;5011290;28;20200;-77
2023/08/18 12:15:34;;;;;;;2.33;1.97;;;;;;;;;;5009515;28;20186;-78
2023/08/18 12:18:00;;;;;;;2.63;1.83;;;;;;;;;;5011095;28;20207;-78
2023/08/18 12:20:26;;;;;;;5.90;2.20;;;;;;;;;;5012534;28;20193;-77
2023/08/18 12:22:53;;;;;;;3.50;1.80;;;;;;;;;;5009231;28;20653;-78
2023/08/18 12:25:23;;;;;;;3.90;1.93;;;;;;;;;;5016560;28;20198;-77
2023/08/18 12:27:49;;;;;;;4.60;2.10;;;;;;;;;;5012629;28;20249;-77
2023/08/18 12:30:16;;;;;;;3.10;1.70;;;;;;;;;;5021125;28;20213;-76
2023/08/18 12:32:43;;;;;;;2.67;1.80;;;;;;;;;;5007373;28;20238;-78
2023/08/18 12:35:10;;;;;;;4.47;1.80;;;;;;;;;;5006602;28;20176;-78
2023/08/18 12:37:36;;;;;;;3.20;1.60;;;;;;;;;;5018095;28;20250;-78
2023/08/18 12:40:06;;;;;;;2.80;1.63;;;;;;;;;;5013122;28;20556;-78
2023/08/18 12:42:35;;;;;;;2.97;1.60;;;;;;;;;;5012667;28;20213;-77
2023/08/18 12:45:01;;;;;;;3.00;1.70;;;;;;;;;;5015761;28;20186;-77
2023/08/18 12:47:27;;;;;;;2.50;1.57;;;;;;;;;;5012955;28;20236;-78
2023/08/18 12:49:53;;;;;;;2.00;1.60;;;;;;;;;;5022481;28;20187;-78
2023/08/18 12:52:19;;;;;;;2.40;1.80;;;;;;;;;;5016785;28;20263;-80
2023/08/18 12:54:46;;;;;;;3.15;1.42;;;;;;;;;;4999087;28;20184;-81
2023/08/18 12:57:12;;;;;;;2.40;1.60;;;;;;;;;;5025880;28;20190;-79
2023/08/18 12:59:38;;;;;;;2.35;1.67;;;;;;;;;;5010578;28;20195;-78
2023/08/18 13:02:04;;;;;;;2.92;1.55;;;;;;;;;;5013152;28;20215;-78
2023/08/18 13:04:32;;;;;;;2.92;1.60;;;;;;;;;;5015984;28;20184;-78
2023/08/18 13:06:58;;;;;;;2.67;1.70;;;;;;;;;;5013307;28;20681;-79
2023/08/18 13:09:26;;;;;;;2.85;1.60;;;;;;;;;;5010359;28;20187;-78
2023/08/18 13:11:53;;;;;;;2.92;1.50;;;;;;;;;;5073001;22;20316;-77
2023/08/18 13:14:19;;;;;;;5.32;1.90;;;;;;;;;;5065327;28;20196;-78
2023/08/18 13:16:45;;;;;;;3.95;1.88;;;;;;;;;;5068522;28;20220;-77
2023/08/18 13:19:11;;;;;;;2.90;1.52;;;;;;;;;;5065221;28;20186;-78
2023/08/18 13:21:37;;;;;;;2.38;1.70;;;;;;;;;;5057844;28;20263;-78
2023/08/18 13:24:04;;;;;;;2.15;1.63;;;;;;;;;;5050399;28;20193;-78
2023/08/18 13:26:30;;;;;;;5.00;2.00;;;;;;;;;;5056281;28;20220;-78
2023/08/18 13:28:56;;;;;;;4.13;1.88;;;;;;;;;;5027786;28;20224;-78
2023/08/18 13:31:23;;;;;;;4.00;1.90;;;;;;;;;;5031504;28;20208;-78
2023/08/18 13:33:49;;;;;;;4.45;1.88;;;;;;;;;;5052441;28;20315;-81
2023/08/18 13:36:15;;;;;;;3.63;1.90;;;;;;;;;;5049987;28;20194;-80
2023/08/18 13:38:42;;;;;;;2.42;1.70;;;;;;;;;;5047838;28;20184;-80
2023/08/18 13:41:08;;;;;;;2.58;1.70;;;;;;;;;;5031689;28;20234;-80
2023/08/18 13:43:34;;;;;;;4.80;1.98;;;;;;;;;;5049131;28;20192;-80
2023/08/18 13:46:00;;;;;;;2.65;1.70;;;;;;;;;;5049663;28;20218;-80
2023/08/18 13:48:26;;;;;;;5.30;1.80;;;;;;;;;;5046681;28;20599;-81
2023/08/18 13:50:54;;;;;;;2.83;1.77;;;;;;;;;;5049256;28;20178;-81
2023/08/18 13:53:21;;;;;;;2.83;1.90;;;;;;;;;;5048854;28;20260;-80
2023/08/18 13:55:47;;;;;;;2.60;1.60;;;;;;;;;;5048990;28;20271;-80
2023/08/18 13:58:13;;;;;;;1.80;1.70;;;;;;;;;;5044818;28;20592;-80
2023/08/18 14:00:39;;;;;;;3.47;1.83;;;;;;;;;;5046611;28;20244;-80
2023/08/18 14:03:06;;;;;;;3.85;1.70;;;;;;;;;;5048910;28;20182;-80
2023/08/18 14:05:32;;;;;;;3.88;1.90;;;;;;;;;;5054007;28;20627;-80
2023/08/18 14:07:58;;;;;;;1.83;1.70;;;;;;;;;;5043098;28;20650;-80
2023/08/18 14:10:24;;;;;;;2.38;1.80;;;;;;;;;;5031830;28;20226;-79
2023/08/18 14:12:51;;;;;;;2.50;1.70;;;;;;;;;;5049871;28;20320;-81
2023/08/18 14:15:17;;;;;;;3.08;2.08;;;;;;;;;;5045942;28;20179;-81
2023/08/18 14:17:47;;;;;;;3.47;2.05;;;;;;;;;;5048461;28;20220;-79
2023/08/18 14:20:13;;;;;;;3.08;2.00;;;;;;;;;;5046469;28;20194;-80
2023/08/18 14:22:43;;;;;;;3.67;1.77;;;;;;;;;;5047582;28;20212;-79
2023/08/18 14:25:10;;;;;;;2.85;1.95;;;;;;;;;;5048448;28;20232;-79
2023/08/18 14:27:36;;;;;;;3.47;1.80;;;;;;;;;;5046129;28;20214;-80
2023/08/18 14:30:04;;;;;;;3.88;1.92;;;;;;;;;;5047867;28;20195;-80
2023/08/18 14:32:33;;;;;;;4.03;1.85;;;;;;;;;;5048726;28;20607;-80
2023/08/18 14:35:00;;;;;;;2.20;1.75;;;;;;;;;;5051317;28;20286;-80
2023/08/18 14:37:26;;;;;;;2.67;1.90;;;;;;;;;;5051029;28;20178;-80
2023/08/18 14:39:52;;;;;;;2.53;1.90;;;;;;;;;;5058412;28;20189;-80
2023/08/18 14:42:19;;;;;;;3.67;2.00;;;;;;;;;;5045578;28;20217;-80